Time;durP1;ratioP1;P1;durP2;ratioP2;P2;SDS_P1;SDS_P2;PMS_P1;PMS_P2;Temp;Humidity;BMP_temperature;BMP_pressure;BME280_temperature;BME280_humidity;BME280_pressure;Samples;Min_cycle;Max_cycle;Signal;HPM_P1;HPM_P2
2023/11/23 00:00:38;;;;;;;11.75;6.57;;;;;;;8.00;76.43;99947.22;6143699;23;19992;-93
2023/11/23 00:03:05;;;;;;;8.20;5.68;;;;;;;8.07;75.89;99956.75;6145584;23;20036;-93
2023/11/23 00:05:31;;;;;;;9.18;6.22;;;;;;;8.20;75.52;99976.31;6143958;23;20021;-93
2023/11/23 00:07:57;;;;;;;9.82;5.97;;;;;;;8.17;75.71;99985.63;6145622;23;20001;-93
2023/11/23 00:10:23;;;;;;;8.50;6.25;;;;;;;8.07;75.13;99958.59;6168688;23;20428;-93
2023/11/23 00:12:48;;;;;;;9.05;6.32;;;;;;;8.05;74.80;99972.28;6144584;23;20008;-92
2023/11/23 00:15:14;;;;;;;9.02;5.88;;;;;;;8.01;75.85;99984.53;6146133;23;20004;-93
2023/11/23 00:17:40;;;;;;;10.15;6.18;;;;;;;8.04;75.64;99988.59;6145599;23;19985;-92
2023/11/23 00:20:12;;;;;;;9.32;5.97;;;;;;;7.89;75.45;99967.63;6170880;23;20007;-92
2023/11/23 00:22:37;;;;;;;9.35;6.40;;;;;;;8.03;76.07;99992.31;6147692;23;20076;-93
2023/11/23 00:25:04;;;;;;;10.40;6.35;;;;;;;8.15;75.71;99992.28;6145505;23;20001;-94
2023/11/23 00:27:30;;;;;;;10.52;6.38;;;;;;;8.13;75.40;99976.44;6167343;23;20008;-93
2023/11/23 00:29:56;;;;;;;9.35;6.40;;;;;;;8.00;75.76;99972.16;6167503;23;20526;-93
2023/11/23 00:32:22;;;;;;;12.98;6.38;;;;;;;8.28;75.15;100010.81;6142870;23;19996;-93
2023/11/23 00:34:48;;;;;;;10.25;6.15;;;;;;;8.16;75.39;100005.47;6143588;23;20000;-93
2023/11/23 00:37:14;;;;;;;8.82;5.97;;;;;;;8.01;76.43;99997.09;6167040;23;20419;-94
2023/11/23 00:39:40;;;;;;;9.65;6.22;;;;;;;7.94;75.60;99986.50;6144114;23;19997;-93
2023/11/23 00:42:06;;;;;;;8.85;6.20;;;;;;;7.98;75.00;99995.72;6143329;23;20019;-92
2023/11/23 00:44:32;;;;;;;9.27;6.00;;;;;;;7.88;75.59;99987.44;6168891;23;20017;-93
2023/11/23 00:46:58;;;;;;;11.88;6.25;;;;;;;7.97;75.66;99996.78;6168005;23;20000;-93
2023/11/23 00:49:24;;;;;;;8.65;6.15;;;;;;;7.87;75.83;100005.41;6143373;23;20424;-94
2023/11/23 00:51:50;;;;;;;11.07;6.18;;;;;;;7.84;75.17;99992.47;6142083;23;20016;-93
2023/11/23 00:54:15;;;;;;;8.95;6.10;;;;;;;7.76;75.08;99992.00;6142579;23;20420;-93
2023/11/23 00:56:41;;;;;;;9.98;6.40;;;;;;;7.77;75.79;100001.69;6143586;23;20290;-93
2023/11/23 00:59:06;;;;;;;8.85;5.82;;;;;;;8.02;76.27;100038.97;6143356;23;19990;-94
2023/11/23 01:01:32;;;;;;;10.32;6.45;;;;;;;7.90;76.10;100015.63;6167605;23;20001;-94
2023/11/23 01:03:58;;;;;;;10.70;6.57;;;;;;;7.78;76.03;100014.88;6167313;23;20011;-93
2023/11/23 01:06:23;;;;;;;9.13;5.95;;;;;;;7.85;76.94;100036.19;6167725;23;20023;-92
2023/11/23 01:08:49;;;;;;;10.75;6.57;;;;;;;7.72;77.04;100018.47;6143494;23;20007;-93
2023/11/23 01:11:15;;;;;;;9.27;6.25;;;;;;;7.81;76.66;100037.69;6166735;23;20051;-92
2023/11/23 01:13:41;;;;;;;8.73;5.63;;;;;;;7.71;76.49;100018.69;6166950;23;20000;-93
2023/11/23 01:16:10;;;;;;;11.07;5.78;;;;;;;7.78;76.97;100025.59;6143083;23;20005;-93
2023/11/23 01:18:36;;;;;;;10.55;6.40;;;;;;;7.68;77.92;100020.00;6144420;23;20076;-93
2023/11/23 01:21:01;;;;;;;8.50;6.03;;;;;;;7.79;77.01;100027.19;6142688;23;19997;-93
2023/11/23 01:23:27;;;;;;;8.80;6.05;;;;;;;7.74;77.12;100023.59;6142531;23;20347;-93
2023/11/23 01:25:53;;;;;;;8.57;5.95;;;;;;;7.75;77.92;100036.75;6142806;23;20043;-94
2023/11/23 01:28:18;;;;;;;9.00;5.82;;;;;;;7.74;77.31;100018.22;6167793;23;20028;-93
2023/11/23 01:30:44;;;;;;;7.68;5.35;;;;;;;7.92;76.74;100036.06;6142614;23;20003;-93
2023/11/23 01:33:11;;;;;;;7.38;5.45;;;;;;;8.02;76.87;100045.13;6166494;23;20027;-93
2023/11/23 01:35:40;;;;;;;7.80;5.35;;;;;;;8.09;76.79;100055.72;6167168;23;20000;-93
2023/11/23 01:38:05;;;;;;;7.90;5.00;;;;;;;7.90;76.18;100033.59;6166784;23;20000;-94
2023/11/23 01:40:31;;;;;;;8.65;4.90;;;;;;;7.90;77.12;100060.41;6141791;23;20015;-93
2023/11/23 01:43:09;;;;;;;8.68;5.28;;;;;;;7.85;76.79;100028.13;6141983;23;20015;-93
2023/11/23 01:45:36;;;;;;;7.10;4.65;;;;;;;7.87;76.02;100029.53;6170329;23;20000;-94
2023/11/23 01:48:01;;;;;;;6.72;4.97;;;;;;;7.96;76.46;100045.25;6167361;23;20087;-94
2023/11/23 01:50:27;;;;;;;6.20;4.60;;;;;;;7.90;76.01;100039.78;6167984;23;20047;-94
2023/11/23 01:52:52;;;;;;;6.65;4.30;;;;;;;7.73;76.11;100022.78;6168487;23;19992;-94
2023/11/23 01:55:19;;;;;;;6.38;4.43;;;;;;;7.52;76.88;100032.22;6143182;23;20009;-93
2023/11/23 01:57:45;;;;;;;6.20;4.53;;;;;;;7.52;76.22;100016.13;6142610;23;20032;-94
2023/11/23 02:00:13;;;;;;;7.28;4.80;;;;;;;7.55;77.05;100028.25;6168087;23;20039;-95
2023/11/23 02:02:40;;;;;;;6.53;4.18;;;;;;;7.54;76.71;100048.06;6168961;23;19992;-95
2023/11/23 02:05:05;;;;;;;7.25;5.15;;;;;;;7.64;76.42;100064.38;6143972;23;20282;-95
2023/11/23 02:07:33;;;;;;;6.03;4.43;;;;;;;7.60;76.72;100056.00;6169596;23;20000;-95
2023/11/23 02:09:59;;;;;;;7.13;4.88;;;;;;;7.77;77.17;100069.50;6146526;23;20005;-93
2023/11/23 02:12:24;;;;;;;8.20;4.90;;;;;;;7.63;76.46;100049.34;6169562;23;19997;-94
2023/11/23 02:14:54;;;;;;;7.75;4.88;;;;;;;7.63;76.20;100035.94;6144367;23;20000;-95
2023/11/23 02:17:20;;;;;;;6.82;5.00;;;;;;;7.68;76.04;100052.97;6145369;23;20005;-95
2023/11/23 02:19:46;;;;;;;7.57;4.65;;;;;;;7.56;76.49;100038.75;6170377;23;20005;-94
2023/11/23 02:22:12;;;;;;;13.23;4.72;;;;;;;7.66;76.30;100049.69;6169937;23;20000;-94
2023/11/23 02:24:41;;;;;;;6.80;5.03;;;;;;;7.49;77.40;100046.91;6144497;23;20135;-94
2023/11/23 02:27:07;;;;;;;7.38;4.90;;;;;;;7.57;77.19;100055.63;6169153;23;20007;-94
2023/11/23 02:29:34;;;;;;;7.72;4.93;;;;;;;7.55;77.61;100057.72;6170473;23;20075;-94
2023/11/23 02:32:09;;;;;;;7.38;5.18;;;;;;;7.68;78.19;100070.91;6144867;23;19985;-94
2023/11/23 02:34:35;;;;;;;7.15;5.32;;;;;;;7.53;78.00;100039.19;6146969;23;19996;-93
2023/11/23 02:37:01;;;;;;;8.25;5.53;;;;;;;7.64;77.38;100059.84;6144806;23;20436;-95
2023/11/23 02:39:27;;;;;;;8.40;5.70;;;;;;;7.67;77.68;100075.44;6145706;23;20005;-95
2023/11/23 02:41:54;;;;;;;7.25;5.43;;;;;;;7.48;77.84;100068.56;6145904;23;20439;-94
2023/11/23 02:44:19;;;;;;;7.85;5.45;;;;;;;7.61;77.37;100056.78;6168740;23;20015;-94
2023/11/23 02:46:45;;;;;;;8.55;5.40;;;;;;;7.61;78.02;100056.78;6169425;23;20047;-94
2023/11/23 02:49:10;;;;;;;6.78;5.43;;;;;;;7.60;77.28;100050.63;6146013;23;20424;-94
2023/11/23 02:51:36;;;;;;;7.72;5.43;;;;;;;7.55;76.63;100049.69;6144923;23;20027;-94
2023/11/23 02:54:02;;;;;;;6.78;5.60;;;;;;;7.63;75.08;100050.16;6144074;23;20058;-96
2023/11/23 02:56:27;;;;;;;6.93;5.22;;;;;;;7.70;75.10;100068.81;6168705;23;20449;-94
2023/11/23 02:58:53;;;;;;;7.00;4.82;;;;;;;7.59;75.76;100043.63;6145930;23;20011;-94
2023/11/23 03:01:21;;;;;;;8.75;5.18;;;;;;;7.68;76.38;100069.03;6144199;23;19996;-94
2023/11/23 03:03:47;;;;;;;7.28;5.03;;;;;;;7.59;76.73;100067.75;6144569;23;20036;-93
2023/11/23 03:06:13;;;;;;;8.18;5.60;;;;;;;7.60;77.02;100066.72;6143956;23;20020;-94
2023/11/23 03:08:39;;;;;;;7.93;5.50;;;;;;;7.56;77.12;100070.09;6170854;23;20004;-96
2023/11/23 03:11:04;;;;;;;9.23;5.80;;;;;;;7.71;76.74;100094.56;6169346;23;20001;-93
2023/11/23 03:13:30;;;;;;;9.40;6.30;;;;;;;7.57;77.02;100069.84;6170347;23;20139;-96
2023/11/23 03:15:56;;;;;;;7.35;5.22;;;;;;;7.55;76.24;100053.16;6169298;23;20004;-95
2023/11/23 03:18:21;;;;;;;8.23;5.55;;;;;;;7.54;77.35;100062.28;6170217;23;20008;-96
2023/11/23 03:20:47;;;;;;;9.23;6.20;;;;;;;7.45;77.48;100056.44;6144706;23;20004;-93
2023/11/23 03:23:13;;;;;;;10.18;6.13;;;;;;;7.41;77.81;100046.44;6145764;23;20004;-92
2023/11/23 03:25:38;;;;;;;10.10;6.50;;;;;;;7.63;77.09;100089.53;6144273;23;20001;-94
2023/11/23 03:28:06;;;;;;;8.13;6.15;;;;;;;7.58;78.09;100086.75;6146644;23;20007;-94
2023/11/23 03:30:32;;;;;;;9.50;6.38;;;;;;;7.50;77.51;100066.47;6146527;23;20024;-93
2023/11/23 03:32:58;;;;;;;9.93;6.07;;;;;;;7.48;77.87;100073.91;6171080;23;19992;-95
2023/11/23 03:35:24;;;;;;;8.65;6.00;;;;;;;7.53;77.49;100082.06;6142820;23;20024;-95
2023/11/23 03:37:49;;;;;;;8.85;5.88;;;;;;;7.39;77.71;100067.28;6143494;23;20497;-95
2023/11/23 03:40:15;;;;;;;7.75;6.03;;;;;;;7.47;76.92;100066.91;6143167;23;20018;-94
2023/11/23 03:42:40;;;;;;;8.68;6.20;;;;;;;7.53;76.29;100065.97;6142969;23;20036;-94
2023/11/23 03:45:06;;;;;;;8.38;5.82;;;;;;;7.54;76.69;100074.88;6166582;23;20015;-94
2023/11/23 03:47:32;;;;;;;7.65;5.72;;;;;;;7.45;76.86;100060.97;6142789;23;20000;-94
2023/11/23 03:49:57;;;;;;;10.32;6.03;;;;;;;7.42;76.42;100066.78;6143568;23;20000;-94
2023/11/23 03:52:23;;;;;;;7.70;5.53;;;;;;;7.47;77.27;100081.13;6169591;23;20001;-94
2023/11/23 03:54:48;;;;;;;9.18;6.55;;;;;;;7.58;76.72;100084.06;6167269;23;20000;-93
2023/11/23 03:57:14;;;;;;;9.85;6.30;;;;;;;7.48;76.96;100065.88;6143119;23;20420;-93
2023/11/23 03:59:40;;;;;;;8.70;6.03;;;;;;;7.46;77.26;100059.94;6168219;23;20020;-93
2023/11/23 04:02:06;;;;;;;11.52;6.40;;;;;;;7.62;77.03;100077.19;6143519;23;20009;-94
2023/11/23 04:04:32;;;;;;;9.93;6.57;;;;;;;7.42;77.07;100059.56;6142562;23;20004;-94
2023/11/23 04:07:00;;;;;;;7.65;5.85;;;;;;;7.43;77.25;100068.44;6167751;23;20000;-94
2023/11/23 04:09:25;;;;;;;11.25;6.30;;;;;;;7.47;77.39;100070.44;6144199;23;20014;-94
2023/11/23 04:11:53;;;;;;;10.40;6.22;;;;;;;7.64;76.68;100091.19;6167757;23;19997;-94
2023/11/23 04:14:18;;;;;;;9.55;6.28;;;;;;;7.56;76.82;100067.41;6169360;23;19992;-94
2023/11/23 04:16:44;;;;;;;9.00;6.03;;;;;;;7.54;76.11;100072.19;6145326;23;20007;-94
2023/11/23 04:19:10;;;;;;;9.43;6.40;;;;;;;7.36;77.19;100059.69;6143804;23;20373;-94
2023/11/23 04:21:35;;;;;;;10.65;6.57;;;;;;;7.42;77.16;100061.44;6143397;23;20039;-94
2023/11/23 04:24:02;;;;;;;9.65;6.40;;;;;;;7.54;76.78;100080.22;6166588;23;20008;-94
2023/11/23 04:26:28;;;;;;;10.32;6.20;;;;;;;7.45;77.05;100063.63;6167953;23;19996;-95
2023/11/23 04:28:53;;;;;;;9.13;6.15;;;;;;;7.48;76.87;100065.88;6167835;23;20523;-94
2023/11/23 04:31:19;;;;;;;8.15;6.13;;;;;;;7.51;77.43;100086.03;6142920;23;20008;-94
2023/11/23 04:33:45;;;;;;;9.30;6.05;;;;;;;7.39;77.09;100056.56;6142742;23;20086;-93
2023/11/23 04:36:12;;;;;;;10.27;6.60;;;;;;;7.33;77.20;100090.44;6143673;23;20000;-94
2023/11/23 04:38:37;;;;;;;8.52;6.03;;;;;;;7.38;77.01;100079.03;6144339;23;20004;-95
2023/11/23 04:41:03;;;;;;;7.50;5.88;;;;;;;7.54;77.06;100096.31;6170037;23;20000;-94
2023/11/23 04:43:29;;;;;;;9.23;6.28;;;;;;;7.39;77.37;100073.44;6167512;23;20092;-94
2023/11/23 04:45:54;;;;;;;9.27;5.95;;;;;;;7.52;77.31;100099.19;6146793;23;20032;-91
2023/11/23 04:48:23;;;;;;;9.65;6.28;;;;;;;7.44;77.48;100089.63;6165190;23;20001;-91
2023/11/23 04:50:48;;;;;;;7.97;5.85;;;;;;;7.47;77.23;100089.19;6192415;23;20052;-95
2023/11/23 04:53:14;;;;;;;9.77;5.95;;;;;;;7.33;77.78;100084.25;6166804;23;20000;-95
2023/11/23 04:55:39;;;;;;;14.65;9.43;;;;;;;7.50;77.65;100120.06;6142309;23;20482;-95
2023/11/23 04:58:07;;;;;;;14.63;8.55;;;;;;;7.25;77.85;100090.75;6142354;23;19996;-93
2023/11/23 05:00:35;;;;;;;11.85;7.75;;;;;;;7.49;78.30;100113.88;6192086;23;20001;-92
2023/11/23 05:03:01;;;;;;;12.85;8.23;;;;;;;7.47;78.02;100101.75;6143270;23;20001;-94
2023/11/23 05:05:32;;;;;;;10.00;6.60;;;;;;;7.59;77.26;100118.66;6140991;23;20051;-94
2023/11/23 05:07:58;;;;;;;8.52;5.88;;;;;;;7.55;77.24;100106.75;6144063;23;20040;-93
2023/11/23 05:10:23;;;;;;;11.07;7.50;;;;;;;7.51;76.80;100104.78;6142662;23;19997;-93
2023/11/23 05:12:50;;;;;;;13.90;6.28;;;;;;;7.54;76.42;100098.97;6142995;23;20078;-94
2023/11/23 05:15:16;;;;;;;12.07;6.57;;;;;;;7.63;76.48;100110.97;6166903;23;20458;-93
2023/11/23 05:17:42;;;;;;;16.27;9.65;;;;;;;7.69;75.62;100102.81;6143966;23;20005;-94
2023/11/23 05:20:18;;;;;;;10.23;6.68;;;;;;;7.45;76.65;100090.44;6144162;23;20335;-93
2023/11/23 05:22:45;;;;;;;13.25;7.20;;;;;;;7.60;77.19;100120.31;6145185;23;20004;-92
2023/11/23 05:25:14;;;;;;;12.63;8.18;;;;;;;7.49;77.38;100124.59;6168629;23;20027;-93
2023/11/23 05:27:47;;;;;;;12.93;7.75;;;;;;;7.50;77.30;100120.06;6146580;23;20000;-95
2023/11/23 05:30:13;;;;;;;12.80;7.10;;;;;;;7.58;77.00;100141.16;6170371;23;20001;-94
2023/11/23 05:32:39;;;;;;;12.55;7.40;;;;;;;7.49;77.61;100131.81;6145885;23;20008;-93
2023/11/23 05:35:06;;;;;;;10.55;7.60;;;;;;;7.49;77.59;100129.97;6145162;23;20406;-96
2023/11/23 05:37:35;;;;;;;15.45;9.10;;;;;;;7.59;77.02;100132.06;6170091;23;20343;-92
2023/11/23 05:40:15;;;;;;;14.73;7.97;;;;;;;7.59;76.83;100139.28;6144121;23;19993;-94
2023/11/23 05:42:43;;;;;;;11.70;6.80;;;;;;;7.64;77.24;100142.91;6144757;23;20056;-95
2023/11/23 05:45:10;;;;;;;11.95;8.23;;;;;;;7.58;77.05;100133.13;6169560;23;20000;-93
2023/11/23 05:47:55;;;;;;;12.40;8.23;;;;;;;7.72;76.67;100144.47;6142853;23;20012;-96
2023/11/23 05:50:31;;;;;;;12.48;7.38;;;;;;;7.77;76.60;100149.13;6169101;23;20001;-95
2023/11/23 05:52:57;;;;;;;9.98;7.07;;;;;;;7.89;76.88;100174.09;6105005;23;20472;-95
2023/11/23 05:55:34;;;;;;;10.35;6.63;;;;;;;7.81;76.45;100177.91;6081518;23;20068;-94
2023/11/23 05:58:11;;;;;;;11.13;7.57;;;;;;;7.68;76.71;100154.81;6080986;23;20036;-95
2023/11/23 06:00:42;;;;;;;16.83;12.00;;;;;;;7.72;77.08;100160.53;6080349;23;20017;-95
2023/11/23 06:03:07;;;;;;;11.00;7.82;;;;;;;7.80;76.33;100173.63;6057429;23;20006;-95
2023/11/23 06:05:35;;;;;;;11.85;7.53;;;;;;;7.67;76.61;100152.34;6079060;23;20343;-95
2023/11/23 06:08:03;;;;;;;13.95;8.10;;;;;;;7.65;76.45;100147.22;6082309;23;19997;-93
2023/11/23 06:10:29;;;;;;;16.05;9.23;;;;;;;7.66;76.71;100148.06;6103786;23;20006;-89
2023/11/23 06:13:01;;;;;;;17.10;10.73;;;;;;;7.72;77.98;100165.91;6079835;23;20077;-95
2023/11/23 06:15:28;;;;;;;16.48;9.80;;;;;;;7.61;77.41;100154.09;6078434;23;20057;-96
2023/11/23 06:17:57;;;;;;;16.23;8.90;;;;;;;7.56;77.09;100142.44;6079701;23;20001;-96
2023/11/23 06:20:24;;;;;;;17.92;9.32;;;;;;;7.77;75.82;100160.66;6025700;23;20565;-95
2023/11/23 06:22:55;;;;;;;19.02;9.43;;;;;;;7.73;76.82;100153.31;6031446;23;20126;-94
2023/11/23 06:25:21;;;;;;;16.08;9.75;;;;;;;7.77;76.63;100170.56;6109849;23;20002;-95
2023/11/23 06:27:53;;;;;;;21.13;14.15;;;;;;;7.77;76.66;100157.97;6083738;23;20016;-95
2023/11/23 06:30:20;;;;;;;;;;;;;;;7.94;76.55;100189.47;6111859;23;20093;-94
2023/11/23 06:32:58;;;;;;;16.67;8.40;;;;;;;7.71;76.13;100156.22;6109763;23;19931;-93
2023/11/23 06:35:24;;;;;;;19.23;9.70;;;;;;;7.83;76.17;100162.41;6114765;23;20001;-92
2023/11/23 06:37:59;;;;;;;12.80;8.23;;;;;;;7.88;75.30;100161.72;6116078;23;20013;-93
2023/11/23 06:40:24;;;;;;;14.32;8.85;;;;;;;7.86;75.43;100150.41;6114590;23;19997;-95
2023/11/23 06:43:00;;;;;;;;;;;;;;;;;;;;;
2023/11/23 06:45:29;;;;;;;12.20;8.35;;;;;;;8.03;74.27;100185.41;6117051;23;20044;-95
2023/11/23 06:47:56;;;;;;;16.23;8.75;;;;;;;7.94;74.10;100165.34;6111863;23;20001;-95
2023/11/23 06:50:27;;;;;;;10.98;7.72;;;;;;;8.00;75.08;100183.19;6114632;23;20036;-96
2023/11/23 06:52:59;;;;;;;13.13;8.52;;;;;;;7.78;75.03;100165.00;6175376;23;19992;-96
2023/11/23 06:55:24;;;;;;;13.90;7.90;;;;;;;7.88;75.01;100185.84;6147638;23;20091;-96
2023/11/23 06:57:50;;;;;;;12.57;7.80;;;;;;;7.94;73.94;100176.88;6146357;23;20139;-93
2023/11/23 07:00:25;;;;;;;14.73;8.57;;;;;;;8.07;74.24;100181.22;6150209;23;20035;-96
2023/11/23 07:02:55;;;;;;;12.20;7.53;;;;;;;8.23;74.42;100210.03;6150831;23;20070;-93
2023/11/23 07:05:21;;;;;;;14.25;9.20;;;;;;;8.01;74.58;100184.81;6147529;23;20076;-93
2023/11/23 07:07:47;;;;;;;13.93;9.25;;;;;;;8.08;75.13;100202.44;6148176;23;20011;-96
2023/11/23 07:10:18;;;;;;;12.93;9.00;;;;;;;8.04;74.73;100193.22;6170718;23;20032;-94
2023/11/23 07:12:47;;;;;;;12.60;8.80;;;;;;;8.01;75.15;100204.44;6148842;23;20003;-96
2023/11/23 07:15:26;;;;;;;17.65;9.77;;;;;;;8.06;74.35;100195.69;6172351;23;19996;-96
2023/11/23 07:18:01;;;;;;;16.48;9.38;;;;;;;7.78;74.83;100182.91;6152523;23;20001;-96
2023/11/23 07:21:10;;;;;;;13.68;9.13;;;;;;;7.88;73.63;100177.81;6148713;23;20009;-96
2023/11/23 07:23:40;;;;;;;15.07;8.20;;;;;;;7.99;74.71;100186.91;6209685;23;20068;-95
2023/11/23 07:26:09;;;;;;;12.43;7.88;;;;;;;7.88;75.40;100181.28;6145533;23;20000;-95
2023/11/23 07:28:43;;;;;;;19.15;11.65;;;;;;;8.09;75.08;100219.34;6171389;23;20080;-93
2023/11/23 07:31:12;;;;;;;13.85;8.90;;;;;;;7.95;75.44;100196.47;6144801;23;20048;-95
2023/11/23 07:33:38;;;;;;;12.85;8.18;;;;;;;8.15;75.31;100218.41;6167334;23;20072;-93
2023/11/23 07:36:04;;;;;;;151.52;78.93;;;;;;;8.04;75.51;100197.78;6167809;23;20000;-92
2023/11/23 07:38:35;;;;;;;162.43;74.80;;;;;;;8.08;74.88;100182.84;6165842;23;20000;-92
2023/11/23 07:41:04;;;;;;;33.90;20.52;;;;;;;8.04;74.13;100179.81;6191649;23;20010;-92
2023/11/23 07:43:33;;;;;;;14.30;10.02;;;;;;;8.19;73.72;100186.59;6169826;23;20008;-93
2023/11/23 07:46:02;;;;;;;15.75;9.75;;;;;;;8.22;73.88;100197.69;6194010;23;19997;-94
2023/11/23 07:48:29;;;;;;;15.23;9.75;;;;;;;8.14;74.10;100187.28;6169434;23;19996;-93
2023/11/23 07:50:55;;;;;;;17.63;10.73;;;;;;;7.98;74.50;100174.56;6194322;23;20423;-94
2023/11/23 07:53:20;;;;;;;17.63;10.07;;;;;;;7.97;74.38;100194.38;6192862;23;20004;-92
2023/11/23 07:55:48;;;;;;;18.02;9.88;;;;;;;8.09;75.08;100213.97;6220735;23;20000;-94
2023/11/23 07:58:14;;;;;;;15.93;9.55;;;;;;;8.09;74.84;100181.78;6145652;23;20005;-92
2023/11/23 08:00:40;;;;;;;18.42;10.57;;;;;;;8.10;75.03;100176.22;6171479;23;20010;-93
2023/11/23 08:03:05;;;;;;;16.90;10.02;;;;;;;8.38;74.46;100208.75;6192379;23;20331;-93
2023/11/23 08:05:35;;;;;;;15.27;9.68;;;;;;;8.29;74.33;100187.63;6167398;23;20070;-93
2023/11/23 08:08:02;;;;;;;16.65;10.23;;;;;;;8.22;74.22;100170.84;6166991;23;19996;-93
2023/11/23 08:10:28;;;;;;;18.23;9.63;;;;;;;8.21;74.01;100171.09;6167625;23;20428;-94
2023/11/23 08:13:20;;;;;;;16.05;9.40;;;;;;;8.53;73.91;100206.47;6226033;23;20003;-96
2023/11/23 08:16:23;;;;;;;19.45;10.95;;;;;;;8.47;73.68;100178.69;6184223;23;20031;-95
2023/11/23 08:18:57;;;;;;;18.98;11.25;;;;;;;8.50;72.92;100163.97;6203174;23;20007;-95
2023/11/23 08:21:49;;;;;;;19.65;11.35;;;;;;;8.54;73.15;100154.41;6177948;23;20022;-94
2023/11/23 08:24:22;;;;;;;60.85;38.70;;;;;;;8.67;74.14;100178.34;6202060;23;20040;-94
2023/11/23 08:26:49;;;;;;;18.52;11.88;;;;;;;8.59;74.16;100159.91;6147834;23;20006;-95
2023/11/23 08:29:17;;;;;;;16.15;10.25;;;;;;;8.61;74.15;100155.13;6150798;23;20004;-93
2023/11/23 08:31:48;;;;;;;18.27;9.90;;;;;;;8.67;73.45;100156.00;6147329;23;20000;-95
2023/11/23 08:34:38;;;;;;;;;;;;;;;;;;;;;
2023/11/23 08:37:14;;;;;;;15.50;8.70;;;;;;;8.58;72.20;100160.94;6179670;23;20439;-94
2023/11/23 08:39:53;;;;;;;14.63;8.48;;;;;;;8.68;72.17;100171.91;6171010;23;20000;-96
2023/11/23 08:42:58;;;;;;;;;;;;;;;;;;;;;
2023/11/23 08:46:22;;;;;;;14.57;9.55;;;;;;;8.85;72.61;100188.09;6103312;23;20024;-96
2023/11/23 08:49:07;;;;;;;23.83;14.57;;;;;;;8.81;72.47;100160.06;6140730;23;20032;-96
2023/11/23 08:51:37;;;;;;;18.98;11.55;;;;;;;8.77;73.27;100147.38;6115809;23;20001;-94
2023/11/23 08:54:09;;;;;;;15.88;9.77;;;;;;;8.85;72.15;100138.94;6089281;23;20084;-93
2023/11/23 08:56:37;;;;;;;15.32;10.30;;;;;;;9.10;71.76;100168.97;6094550;23;20633;-92
2023/11/23 08:59:04;;;;;;;16.27;10.52;;;;;;;8.99;71.65;100174.41;6112623;23;20081;-94
2023/11/23 09:01:29;;;;;;;13.40;8.45;;;;;;;8.95;71.79;100152.56;6110412;23;20006;-92
2023/11/23 09:03:55;;;;;;;13.90;7.55;;;;;;;8.92;71.72;100149.53;6082174;23;20079;-93
2023/11/23 09:06:22;;;;;;;12.13;8.32;;;;;;;8.81;72.05;100129.72;6082982;23;20412;-91
2023/11/23 09:08:48;;;;;;;13.18;8.05;;;;;;;8.82;71.75;100120.59;6108287;23;20008;-94
2023/11/23 09:11:17;;;;;;;14.70;7.80;;;;;;;8.62;72.47;100113.78;6109682;23;20036;-94
2023/11/23 09:13:51;;;;;;;13.02;8.73;;;;;;;8.76;72.82;100124.25;6086628;23;19993;-93
2023/11/23 09:16:20;;;;;;;14.05;8.52;;;;;;;8.99;72.67;100137.63;6112769;23;20009;-92
2023/11/23 09:18:46;;;;;;;15.52;9.50;;;;;;;9.19;73.12;100142.53;6117840;23;20037;-95
2023/11/23 09:21:34;;;;;;;16.90;8.07;;;;;;;8.99;73.06;100105.38;6146219;23;20289;-96
2023/11/23 09:24:05;;;;;;;13.32;8.90;;;;;;;9.21;73.37;100136.94;6174413;23;20024;-96
2023/11/23 09:26:32;;;;;;;19.15;9.27;;;;;;;9.43;71.36;100151.31;6171969;23;20016;-94
2023/11/23 09:29:11;;;;;;;16.75;10.00;;;;;;;9.24;71.99;100123.03;6150406;23;20027;-96
2023/11/23 09:31:38;;;;;;;14.82;9.98;;;;;;;9.24;71.66;100121.16;6157784;23;20093;-95
2023/11/23 09:34:08;;;;;;;14.35;9.32;;;;;;;9.29;71.17;100117.75;6158457;23;20056;-96
2023/11/23 09:37:26;;;;;;;16.98;10.63;;;;;;;9.37;71.21;100121.91;6183365;23;20012;-95
2023/11/23 09:40:43;;;;;;;16.10;10.18;;;;;;;9.46;71.38;100120.44;6097690;23;20002;-94
2023/11/23 09:52:04;;;;;;;16.38;10.38;;;;;;;9.60;71.30;100069.88;6233749;22;20008;-96
2023/11/23 09:55:00;;;;;;;;;;;;;;;;;;;;;
2023/11/23 09:58:07;;;;;;;;;;;;;;;;;;;;;
2023/11/23 10:04:58;;;;;;;16.98;9.23;;;;;;;9.85;69.45;100024.53;6073894;23;20007;-95
2023/11/23 10:26:33;;;;;;;87.15;54.72;;;;;;;10.57;67.89;100033.56;5857593;24;20032;-95
2023/11/23 10:32:22;;;;;;;22.42;12.30;;;;;;;10.61;68.20;100001.56;6137368;23;20068;-95
2023/11/23 10:35:17;;;;;;;;;;;;;;;;;;;;;
2023/11/23 10:38:03;;;;;;;18.05;11.23;;;;;;;10.82;66.87;99991.81;6140235;23;20036;-92
2023/11/23 10:40:38;;;;;;;19.38;11.77;;;;;;;11.00;66.76;99991.44;6139090;23;20005;-93
2023/11/23 10:43:13;;;;;;;;;;;;;;;;;;;;;
2023/11/23 10:45:47;;;;;;;18.75;11.68;;;;;;;11.01;65.27;99971.50;6171073;23;20031;-94
2023/11/23 10:48:16;;;;;;;17.40;12.00;;;;;;;10.96;65.22;99965.25;6150890;23;20076;-95
2023/11/23 10:50:43;;;;;;;17.73;11.80;;;;;;;11.10;65.96;99993.38;6149341;23;20111;-94
2023/11/23 10:53:11;;;;;;;24.48;14.25;;;;;;;10.97;67.02;99965.00;6149754;23;20007;-94
2023/11/23 10:55:48;;;;;;;;;;;;;;;;;;;;;
2023/11/23 10:58:16;;;;;;;22.00;12.63;;;;;;;10.82;68.01;99967.56;6158091;23;20032;-96
2023/11/23 11:01:01;;;;;;;19.48;11.30;;;;;;;10.71;68.54;99954.00;6176626;23;20005;-95
2023/11/23 11:03:58;;;;;;;20.65;10.98;;;;;;;10.75;67.84;99919.28;6176870;23;20064;-95
2023/11/23 11:06:38;;;;;;;19.65;12.07;;;;;;;10.94;67.63;99930.50;6168508;23;20001;-95
2023/11/23 11:09:33;;;;;;;;;;;;;;;;;;;;;
2023/11/23 11:13:30;;;;;;;17.75;11.10;;;;;;;11.08;66.43;99915.53;6208391;23;20373;-95
2023/11/23 11:32:58;;;;;;;23.83;12.02;;;;;;;10.95;67.74;99909.75;6225918;23;20410;-96
2023/11/23 11:36:29;;;;;;;27.80;13.30;;;;;;;11.26;67.25;99943.13;6178484;23;20012;-95
2023/11/23 12:10:05;;;;;;;;;;;;;;;;;;;;;
2023/11/23 12:16:13;;;;;;;14.32;9.45;;;;;;;10.94;68.11;99898.16;6021212;23;20459;-95
2023/11/23 12:19:14;;;;;;;20.85;12.00;;;;;;;10.62;68.28;99882.78;6005345;23;20007;-96
2023/11/23 12:31:45;;;;;;;20.65;12.18;;;;;;;10.00;69.70;99846.41;5987883;24;20045;-93
2023/11/23 12:34:11;;;;;;;21.25;13.98;;;;;;;10.05;70.48;99886.00;5985004;24;20017;-93
2023/11/23 12:36:37;;;;;;;17.73;11.40;;;;;;;9.72;71.99;99871.63;5960425;24;20127;-91
2023/11/23 12:39:04;;;;;;;17.63;11.10;;;;;;;9.72;72.04;99877.00;5979739;23;20010;-92
2023/11/23 12:41:29;;;;;;;17.55;10.55;;;;;;;9.37;73.05;99859.34;6020636;23;20003;-95
2023/11/23 12:43:55;;;;;;;17.02;11.32;;;;;;;9.29;72.75;99857.88;6022516;23;20030;-94
2023/11/23 12:46:21;;;;;;;21.33;11.10;;;;;;;9.23;73.24;99872.31;6022259;23;20011;-94
2023/11/23 12:48:59;;;;;;;143.73;73.07;;;;;;;9.28;74.22;99898.47;6022369;23;20008;-92
2023/11/23 12:51:28;;;;;;;25.95;16.83;;;;;;;9.14;74.30;99876.47;6022694;23;20029;-94
2023/11/23 12:53:54;;;;;;;26.88;13.80;;;;;;;9.12;74.43;99878.59;6068368;23;19998;-92
2023/11/23 12:56:19;;;;;;;24.70;12.43;;;;;;;9.13;74.46;99879.41;6121820;23;20000;-91
2023/11/23 12:58:45;;;;;;;18.90;10.60;;;;;;;9.00;75.37;99859.09;6140787;23;20001;-93
2023/11/23 13:01:13;;;;;;;25.45;11.35;;;;;;;9.22;74.46;99867.19;6142440;23;19992;-91
2023/11/23 13:03:38;;;;;;;23.73;13.48;;;;;;;8.86;74.79;99823.69;6166403;23;20492;-91
2023/11/23 13:06:21;;;;;;;20.67;12.98;;;;;;;9.01;74.56;99841.91;6142976;23;20020;-92
2023/11/23 13:08:52;;;;;;;26.27;13.52;;;;;;;9.03;75.14;99867.47;6167885;23;20008;-91
2023/11/23 13:11:26;;;;;;;22.05;12.30;;;;;;;8.87;75.23;99844.13;6144203;23;20091;-95
2023/11/23 13:20:42;;;;;;;20.30;10.35;;;;;;;8.68;75.47;99838.19;6101588;23;20029;-91
2023/11/23 13:23:11;;;;;;;15.52;9.25;;;;;;;8.69;75.98;99837.13;6033458;23;20050;-95
2023/11/23 13:25:44;;;;;;;20.98;11.20;;;;;;;8.76;75.81;99827.06;6056246;23;20453;-95
2023/11/23 13:28:28;;;;;;;21.65;11.02;;;;;;;8.78;75.38;99810.66;6111204;23;20311;-94
2023/11/23 13:31:06;;;;;;;18.25;11.23;;;;;;;9.15;75.14;99842.38;6176172;23;20324;-94
2023/11/23 13:37:34;;;;;;;;;;;;;;;;;;;;;
2023/11/23 13:41:07;;;;;;;;;;;;;;;;;;;;;
2023/11/23 13:44:54;;;;;;;25.92;13.48;;;;;;;9.04;74.82;99798.44;6002815;23;20075;-96
2023/11/23 13:47:33;;;;;;;21.85;11.93;;;;;;;9.03;74.06;99802.19;6150020;22;20012;-96
2023/11/23 13:50:47;;;;;;;97.95;49.45;;;;;;;8.86;75.00;99786.94;6194184;23;20000;-96